Justiceburg, TX (79330)

4:00 AM CST on January 18, 2017 (GMT -0600)
Turkey Ridge | | Change Station

Elev 2336 ft 33.05 °N, 101.16 °W | Updated 3 seconds ago

Overcast
Overcast
43.4 °F
Feels Like 43 °F
N
1.9
Wind Variable Wind from West
Gusts 3.5 mph

Today
High -- | Low -- °F
--% Chance of Precip.
Yesterday
High -- | Low -- °F
Precip. -- in
Pressure 30.12 in
Visibility 10.0 miles
Clouds Mostly Cloudy 1000 ft
Overcast 1600 ft
Windchill 43 °F
Dew Point 42 °F
Humidity 94%
Rainfall 0.00 in
Snow Depth Not available.
7:47 AM 6:04 PM
Waning Gibbous, 64% visible
METAR KSNK 180955Z AUTO 33003KT 10SM BKN010 OVC016 06/05 A3012 RMK AO2 T00550053
Pressure 30.12 in
Visibility 10.0 miles
Clouds Mostly Cloudy 1000 ft
Overcast 1600 ft
Windchill 43 °F
Dew Point 42 °F
Humidity 94%
Rainfall 0.00 in
Snow Depth Not available.
7:47 AM 6:04 PM
Waning Gibbous, 64% visible
METAR KSNK 180955Z AUTO 33003KT 10SM BKN010 OVC016 06/05 A3012 RMK AO2 T00550053

Get Your Daily Forecast Email!

Thanks for signing up!

Be on the lookout for a verification email in your inbox.

You'll start receiving the daily forecast at 8 AM.

×

10-Day Weather Forecast

Almanac

Astronomy

Jan. 18, 2017 Rise Set
Actual Time
Civil Twilight
Nautical Twilight
Astronomical Twilight
Moon
Length of Visible Light
Length of Day
Tomorrow will be .
, % of the Moon is Illuminated

Today's Extremes

State Highs State Lows

Community

WunderPhotos

Upload Photos

1,962,540 photos uploaded!

WunderBlog® & News

Nearby

Air Quality

  Air Quality AQ Index Pollutant
Not available.

Snow Depth

Station Depth Elevation

Earthquake Activity

City Distance Mag. Time & Date
Minimum magnitude displayed is 2.5.

Coastal Water Temperatures

Place Temperature

Stations

Nearby Weather Stations

Station Location Temp. Windchill Dew Point Humidity Wind Precip. Elev Updated Type
                   

Watches & Warnings

There are currently no watches in effect.